sensor_id;sensor_type;location;lat;lon;timestamp;pressure;altitude;pressure_sealevel;temperature;humidity
12793;BME280;6460;42.684;23.260;2022-12-18T00:00:13;95353.09;;;6.48;100.00
12793;BME280;6460;42.684;23.260;2022-12-18T00:02:40;95363.47;;;6.41;100.00
12793;BME280;6460;42.684;23.260;2022-12-18T00:05:08;95362.25;;;6.16;100.00
12793;BME280;6460;42.684;23.260;2022-12-18T00:07:35;95367.59;;;6.16;100.00
12793;BME280;6460;42.684;23.260;2022-12-18T00:10:03;95362.25;;;6.16;100.00
12793;BME280;6460;42.684;23.260;2022-12-18T00:12:30;95366.78;;;6.07;100.00
12793;BME280;6460;42.684;23.260;2022-12-18T00:14:58;95376.91;;;6.19;100.00
12793;BME280;6460;42.684;23.260;2022-12-18T00:17:25;95385.94;;;6.09;100.00
12793;BME280;6460;42.684;23.260;2022-12-18T00:19:52;95366.69;;;6.21;100.00
12793;BME280;6460;42.684;23.260;2022-12-18T00:22:18;95375.44;;;6.13;100.00
12793;BME280;6460;42.684;23.260;2022-12-18T00:24:45;95383.44;;;6.13;100.00
12793;BME280;6460;42.684;23.260;2022-12-18T00:27:12;95375.00;;;6.19;100.00
12793;BME280;6460;42.684;23.260;2022-12-18T00:29:39;95383.34;;;6.26;100.00
12793;BME280;6460;42.684;23.260;2022-12-18T00:32:07;95397.78;;;6.25;100.00
12793;BME280;6460;42.684;23.260;2022-12-18T00:34:34;95396.31;;;6.11;100.00
12793;BME280;6460;42.684;23.260;2022-12-18T00:37:01;95398.81;;;6.16;100.00
12793;BME280;6460;42.684;23.260;2022-12-18T00:39:28;95386.50;;;6.28;100.00
12793;BME280;6460;42.684;23.260;2022-12-18T00:41:55;95390.22;;;6.58;100.00
12793;BME280;6460;42.684;23.260;2022-12-18T00:44:39;95390.03;;;6.55;100.00
12793;BME280;6460;42.684;23.260;2022-12-18T00:47:07;95394.75;;;6.58;100.00
12793;BME280;6460;42.684;23.260;2022-12-18T00:49:34;95395.34;;;6.37;100.00
12793;BME280;6460;42.684;23.260;2022-12-18T00:52:01;95402.63;;;6.15;100.00
12793;BME280;6460;42.684;23.260;2022-12-18T00:54:28;95409.50;;;6.16;100.00
12793;BME280;6460;42.684;23.260;2022-12-18T00:56:55;95407.41;;;6.35;100.00
12793;BME280;6460;42.684;23.260;2022-12-18T00:59:22;95408.31;;;6.22;100.00
12793;BME280;6460;42.684;23.260;2022-12-18T01:01:49;95414.25;;;6.19;100.00
12793;BME280;6460;42.684;23.260;2022-12-18T01:04:17;95411.53;;;6.10;100.00
12793;BME280;6460;42.684;23.260;2022-12-18T01:06:44;95414.16;;;6.02;100.00
12793;BME280;6460;42.684;23.260;2022-12-18T01:09:11;95413.22;;;6.06;100.00
12793;BME280;6460;42.684;23.260;2022-12-18T01:11:38;95416.78;;;5.93;100.00
12793;BME280;6460;42.684;23.260;2022-12-18T01:14:05;95417.47;;;5.85;100.00
12793;BME280;6460;42.684;23.260;2022-12-18T01:16:31;95430.88;;;5.94;100.00
12793;BME280;6460;42.684;23.260;2022-12-18T01:18:58;95424.97;;;5.97;100.00
12793;BME280;6460;42.684;23.260;2022-12-18T01:21:27;95432.41;;;5.86;100.00
12793;BME280;6460;42.684;23.260;2022-12-18T01:23:55;95425.38;;;5.68;100.00
12793;BME280;6460;42.684;23.260;2022-12-18T01:26:22;95428.47;;;5.61;100.00
12793;BME280;6460;42.684;23.260;2022-12-18T01:28:49;95428.50;;;5.48;100.00
12793;BME280;6460;42.684;23.260;2022-12-18T01:31:18;95437.09;;;5.45;100.00
12793;BME280;6460;42.684;23.260;2022-12-18T01:33:45;95439.78;;;5.45;100.00
12793;BME280;6460;42.684;23.260;2022-12-18T01:36:17;95447.53;;;5.55;100.00
12793;BME280;6460;42.684;23.260;2022-12-18T01:38:47;95446.63;;;5.59;100.00
12793;BME280;6460;42.684;23.260;2022-12-18T01:41:15;95439.66;;;5.50;100.00
12793;BME280;6460;42.684;23.260;2022-12-18T01:43:44;95430.16;;;5.57;100.00
12793;BME280;6460;42.684;23.260;2022-12-18T01:46:11;95439.03;;;5.53;100.00
12793;BME280;6460;42.684;23.260;2022-12-18T01:48:39;95445.78;;;5.50;100.00
12793;BME280;6460;42.684;23.260;2022-12-18T01:51:09;95444.47;;;5.61;100.00
12793;BME280;6460;42.684;23.260;2022-12-18T01:53:37;95445.22;;;5.62;100.00
12793;BME280;6460;42.684;23.260;2022-12-18T01:56:07;95448.16;;;5.52;100.00
12793;BME280;6460;42.684;23.260;2022-12-18T01:58:40;95449.09;;;5.56;100.00
12793;BME280;6460;42.684;23.260;2022-12-18T02:01:09;95443.03;;;5.42;100.00
12793;BME280;6460;42.684;23.260;2022-12-18T02:03:36;95448.56;;;5.45;100.00
12793;BME280;6460;42.684;23.260;2022-12-18T02:06:09;95446.78;;;5.41;100.00
12793;BME280;6460;42.684;23.260;2022-12-18T02:08:43;95451.72;;;5.47;100.00
12793;BME280;6460;42.684;23.260;2022-12-18T02:11:19;95451.75;;;5.33;100.00
12793;BME280;6460;42.684;23.260;2022-12-18T02:13:59;95451.75;;;5.56;100.00
12793;BME280;6460;42.684;23.260;2022-12-18T02:16:33;95461.09;;;5.45;100.00
12793;BME280;6460;42.684;23.260;2022-12-18T02:19:07;95467.34;;;5.62;100.00
12793;BME280;6460;42.684;23.260;2022-12-18T02:21:45;95470.84;;;5.49;100.00
12793;BME280;6460;42.684;23.260;2022-12-18T02:24:21;95471.72;;;5.22;100.00
12793;BME280;6460;42.684;23.260;2022-12-18T02:26:54;95478.91;;;5.36;100.00
12793;BME280;6460;42.684;23.260;2022-12-18T02:29:29;95472.75;;;5.49;100.00
12793;BME280;6460;42.684;23.260;2022-12-18T02:31:59;95470.50;;;5.42;100.00
12793;BME280;6460;42.684;23.260;2022-12-18T02:34:28;95470.31;;;5.39;100.00
12793;BME280;6460;42.684;23.260;2022-12-18T02:36:58;95470.94;;;5.58;100.00
12793;BME280;6460;42.684;23.260;2022-12-18T02:39:29;95473.31;;;5.46;100.00
12793;BME280;6460;42.684;23.260;2022-12-18T02:41:59;95476.09;;;5.41;100.00
12793;BME280;6460;42.684;23.260;2022-12-18T02:44:27;95481.38;;;5.18;100.00
12793;BME280;6460;42.684;23.260;2022-12-18T02:46:54;95486.28;;;5.39;100.00
12793;BME280;6460;42.684;23.260;2022-12-18T02:49:32;95481.09;;;5.56;100.00
12793;BME280;6460;42.684;23.260;2022-12-18T02:52:07;95484.72;;;5.38;100.00
12793;BME280;6460;42.684;23.260;2022-12-18T02:54:51;95490.25;;;5.14;100.00
12793;BME280;6460;42.684;23.260;2022-12-18T02:57:31;95490.38;;;4.95;100.00
12793;BME280;6460;42.684;23.260;2022-12-18T03:00:04;95491.69;;;4.84;100.00
12793;BME280;6460;42.684;23.260;2022-12-18T03:02:37;95480.59;;;5.04;100.00
12793;BME280;6460;42.684;23.260;2022-12-18T03:05:11;95490.47;;;5.17;100.00
12793;BME280;6460;42.684;23.260;2022-12-18T03:07:42;95489.69;;;5.03;100.00
12793;BME280;6460;42.684;23.260;2022-12-18T03:10:14;95512.09;;;4.75;100.00
12793;BME280;6460;42.684;23.260;2022-12-18T03:12:47;95504.00;;;4.66;100.00
12793;BME280;6460;42.684;23.260;2022-12-18T03:15:19;95509.72;;;4.46;100.00
12793;BME280;6460;42.684;23.260;2022-12-18T03:17:51;95523.16;;;4.68;100.00
12793;BME280;6460;42.684;23.260;2022-12-18T03:20:21;95516.25;;;4.21;100.00
12793;BME280;6460;42.684;23.260;2022-12-18T03:22:51;95517.28;;;4.39;100.00
12793;BME280;6460;42.684;23.260;2022-12-18T03:25:21;95514.13;;;4.51;100.00
12793;BME280;6460;42.684;23.260;2022-12-18T03:27:55;95526.25;;;4.57;100.00
12793;BME280;6460;42.684;23.260;2022-12-18T03:30:23;95525.97;;;4.58;100.00
12793;BME280;6460;42.684;23.260;2022-12-18T03:32:56;95534.03;;;4.53;100.00
12793;BME280;6460;42.684;23.260;2022-12-18T03:35:28;95523.56;;;4.30;100.00
12793;BME280;6460;42.684;23.260;2022-12-18T03:37:56;95524.19;;;4.54;100.00
12793;BME280;6460;42.684;23.260;2022-12-18T03:40:27;95532.28;;;4.49;100.00
12793;BME280;6460;42.684;23.260;2022-12-18T03:43:02;95541.97;;;4.58;100.00
12793;BME280;6460;42.684;23.260;2022-12-18T03:45:35;95551.50;;;4.46;100.00
12793;BME280;6460;42.684;23.260;2022-12-18T03:48:07;95552.41;;;4.55;100.00
12793;BME280;6460;42.684;23.260;2022-12-18T03:50:41;95550.00;;;4.53;100.00
12793;BME280;6460;42.684;23.260;2022-12-18T03:53:23;95555.22;;;4.45;100.00
12793;BME280;6460;42.684;23.260;2022-12-18T03:55:52;95554.00;;;4.56;100.00
12793;BME280;6460;42.684;23.260;2022-12-18T03:58:24;95558.94;;;4.76;100.00
12793;BME280;6460;42.684;23.260;2022-12-18T04:00:54;95557.34;;;4.61;100.00
12793;BME280;6460;42.684;23.260;2022-12-18T04:03:23;95551.91;;;4.53;100.00
12793;BME280;6460;42.684;23.260;2022-12-18T04:05:51;95552.03;;;4.75;100.00
12793;BME280;6460;42.684;23.260;2022-12-18T04:08:19;95555.28;;;4.58;100.00
12793;BME280;6460;42.684;23.260;2022-12-18T04:10:47;95563.63;;;4.52;100.00
12793;BME280;6460;42.684;23.260;2022-12-18T04:13:23;95563.63;;;4.52;100.00
12793;BME280;6460;42.684;23.260;2022-12-18T04:15:50;95571.69;;;4.47;100.00
12793;BME280;6460;42.684;23.260;2022-12-18T04:18:17;95562.63;;;4.48;100.00
12793;BME280;6460;42.684;23.260;2022-12-18T04:20:44;95576.63;;;4.40;100.00
12793;BME280;6460;42.684;23.260;2022-12-18T04:23:11;95600.16;;;4.33;100.00
12793;BME280;6460;42.684;23.260;2022-12-18T04:25:37;95589.66;;;4.22;100.00
12793;BME280;6460;42.684;23.260;2022-12-18T04:28:04;95601.13;;;4.04;100.00
12793;BME280;6460;42.684;23.260;2022-12-18T04:30:33;95598.31;;;4.14;100.00
12793;BME280;6460;42.684;23.260;2022-12-18T04:32:59;95597.94;;;4.02;100.00
12793;BME280;6460;42.684;23.260;2022-12-18T04:35:26;95589.00;;;4.31;100.00
12793;BME280;6460;42.684;23.260;2022-12-18T04:37:53;95606.91;;;4.25;100.00
12793;BME280;6460;42.684;23.260;2022-12-18T04:40:20;95604.25;;;4.06;100.00
12793;BME280;6460;42.684;23.260;2022-12-18T04:42:47;95616.56;;;4.21;100.00
12793;BME280;6460;42.684;23.260;2022-12-18T04:45:14;95612.78;;;4.08;100.00
12793;BME280;6460;42.684;23.260;2022-12-18T04:47:42;95625.25;;;4.26;100.00
12793;BME280;6460;42.684;23.260;2022-12-18T04:50:09;95618.50;;;4.15;100.00
12793;BME280;6460;42.684;23.260;2022-12-18T04:52:36;95624.81;;;4.19;100.00
12793;BME280;6460;42.684;23.260;2022-12-18T04:55:03;95625.41;;;4.16;100.00
12793;BME280;6460;42.684;23.260;2022-12-18T04:57:30;95627.00;;;4.17;100.00
12793;BME280;6460;42.684;23.260;2022-12-18T04:59:57;95633.84;;;4.05;100.00
12793;BME280;6460;42.684;23.260;2022-12-18T05:02:24;95641.06;;;3.99;100.00
12793;BME280;6460;42.684;23.260;2022-12-18T05:04:52;95642.66;;;3.82;100.00
12793;BME280;6460;42.684;23.260;2022-12-18T05:07:19;95639.41;;;4.03;100.00
12793;BME280;6460;42.684;23.260;2022-12-18T05:09:46;95648.41;;;4.07;100.00
12793;BME280;6460;42.684;23.260;2022-12-18T05:12:13;95655.16;;;4.00;100.00
12793;BME280;6460;42.684;23.260;2022-12-18T05:14:40;95658.13;;;3.98;100.00
12793;BME280;6460;42.684;23.260;2022-12-18T05:17:07;95664.28;;;3.94;100.00
12793;BME280;6460;42.684;23.260;2022-12-18T05:19:33;95656.25;;;3.99;100.00
12793;BME280;6460;42.684;23.260;2022-12-18T05:22:02;95673.97;;;3.66;100.00
12793;BME280;6460;42.684;23.260;2022-12-18T05:24:28;95665.06;;;3.76;100.00
12793;BME280;6460;42.684;23.260;2022-12-18T05:26:55;95678.75;;;3.64;100.00
12793;BME280;6460;42.684;23.260;2022-12-18T05:29:22;95668.31;;;3.91;100.00
12793;BME280;6460;42.684;23.260;2022-12-18T05:31:49;95672.50;;;3.97;100.00
12793;BME280;6460;42.684;23.260;2022-12-18T05:34:16;95677.22;;;4.00;100.00
12793;BME280;6460;42.684;23.260;2022-12-18T05:36:43;95679.31;;;4.03;100.00
12793;BME280;6460;42.684;23.260;2022-12-18T05:39:11;95691.91;;;3.98;100.00
12793;BME280;6460;42.684;23.260;2022-12-18T05:41:38;95691.41;;;4.14;100.00
12793;BME280;6460;42.684;23.260;2022-12-18T05:44:05;95709.34;;;3.85;100.00
12793;BME280;6460;42.684;23.260;2022-12-18T05:46:32;95712.00;;;3.85;100.00
12793;BME280;6460;42.684;23.260;2022-12-18T05:48:59;95711.94;;;3.90;100.00
12793;BME280;6460;42.684;23.260;2022-12-18T05:51:26;95708.00;;;3.64;100.00
12793;BME280;6460;42.684;23.260;2022-12-18T05:53:54;95703.66;;;3.73;100.00
12793;BME280;6460;42.684;23.260;2022-12-18T05:56:22;95711.16;;;3.66;100.00
12793;BME280;6460;42.684;23.260;2022-12-18T05:58:51;95714.50;;;3.53;100.00
12793;BME280;6460;42.684;23.260;2022-12-18T06:01:21;95714.00;;;3.51;100.00
12793;BME280;6460;42.684;23.260;2022-12-18T06:03:48;95725.53;;;3.65;100.00
12793;BME280;6460;42.684;23.260;2022-12-18T06:06:16;95732.75;;;3.83;100.00
12793;BME280;6460;42.684;23.260;2022-12-18T06:08:44;95719.97;;;3.85;100.00
12793;BME280;6460;42.684;23.260;2022-12-18T06:11:11;95717.44;;;3.99;100.00
12793;BME280;6460;42.684;23.260;2022-12-18T06:13:39;95716.69;;;3.93;100.00
12793;BME280;6460;42.684;23.260;2022-12-18T06:16:07;95728.66;;;4.14;100.00
12793;BME280;6460;42.684;23.260;2022-12-18T06:18:34;95729.50;;;4.10;100.00
12793;BME280;6460;42.684;23.260;2022-12-18T06:21:01;95737.97;;;3.93;100.00
12793;BME280;6460;42.684;23.260;2022-12-18T06:23:28;95739.09;;;3.87;100.00
12793;BME280;6460;42.684;23.260;2022-12-18T06:25:57;95726.97;;;4.00;100.00
12793;BME280;6460;42.684;23.260;2022-12-18T06:28:24;95738.97;;;3.97;100.00
12793;BME280;6460;42.684;23.260;2022-12-18T06:30:52;95748.28;;;3.76;100.00
12793;BME280;6460;42.684;23.260;2022-12-18T06:33:19;95741.13;;;3.95;100.00
12793;BME280;6460;42.684;23.260;2022-12-18T06:35:46;95741.28;;;3.80;100.00
12793;BME280;6460;42.684;23.260;2022-12-18T06:38:13;95747.16;;;3.82;100.00
12793;BME280;6460;42.684;23.260;2022-12-18T06:40:40;95760.59;;;3.67;100.00
12793;BME280;6460;42.684;23.260;2022-12-18T06:43:07;95762.31;;;3.82;100.00
12793;BME280;6460;42.684;23.260;2022-12-18T06:45:34;95757.88;;;3.72;100.00
12793;BME280;6460;42.684;23.260;2022-12-18T06:48:02;95762.47;;;3.90;100.00
12793;BME280;6460;42.684;23.260;2022-12-18T06:50:29;95764.56;;;3.69;100.00
12793;BME280;6460;42.684;23.260;2022-12-18T06:52:56;95766.94;;;3.95;100.00
12793;BME280;6460;42.684;23.260;2022-12-18T06:55:23;95782.16;;;3.89;100.00
12793;BME280;6460;42.684;23.260;2022-12-18T06:57:50;95773.28;;;3.75;100.00
12793;BME280;6460;42.684;23.260;2022-12-18T07:00:17;95767.75;;;3.95;100.00
12793;BME280;6460;42.684;23.260;2022-12-18T07:02:44;95784.72;;;3.76;100.00
12793;BME280;6460;42.684;23.260;2022-12-18T07:05:12;95776.72;;;3.99;100.00
12793;BME280;6460;42.684;23.260;2022-12-18T07:07:39;95778.47;;;4.09;100.00
12793;BME280;6460;42.684;23.260;2022-12-18T07:10:07;95778.31;;;4.00;100.00
12793;BME280;6460;42.684;23.260;2022-12-18T07:12:33;95796.91;;;4.00;100.00
12793;BME280;6460;42.684;23.260;2022-12-18T07:15:01;95793.22;;;3.96;100.00
12793;BME280;6460;42.684;23.260;2022-12-18T07:17:28;95781.69;;;4.06;100.00
12793;BME280;6460;42.684;23.260;2022-12-18T07:19:55;95784.56;;;4.09;100.00
12793;BME280;6460;42.684;23.260;2022-12-18T07:22:24;95784.25;;;3.92;100.00
12793;BME280;6460;42.684;23.260;2022-12-18T07:24:51;95784.81;;;3.89;100.00
12793;BME280;6460;42.684;23.260;2022-12-18T07:27:18;95788.44;;;3.98;100.00
12793;BME280;6460;42.684;23.260;2022-12-18T07:29:45;95791.16;;;3.93;100.00
12793;BME280;6460;42.684;23.260;2022-12-18T07:32:12;95798.22;;;4.03;100.00
12793;BME280;6460;42.684;23.260;2022-12-18T07:34:39;95799.16;;;4.12;100.00
12793;BME280;6460;42.684;23.260;2022-12-18T07:37:05;95803.47;;;3.84;100.00
12793;BME280;6460;42.684;23.260;2022-12-18T07:39:34;95806.53;;;3.96;100.00
12793;BME280;6460;42.684;23.260;2022-12-18T07:42:00;95810.09;;;3.87;100.00
12793;BME280;6460;42.684;23.260;2022-12-18T07:44:45;95802.34;;;4.14;100.00
12793;BME280;6460;42.684;23.260;2022-12-18T07:47:12;95808.69;;;3.94;100.00
12793;BME280;6460;42.684;23.260;2022-12-18T07:49:38;95805.06;;;3.85;100.00
12793;BME280;6460;42.684;23.260;2022-12-18T07:52:05;95818.31;;;3.90;100.00
12793;BME280;6460;42.684;23.260;2022-12-18T07:54:34;95816.31;;;3.77;100.00
12793;BME280;6460;42.684;23.260;2022-12-18T07:57:01;95828.81;;;3.48;100.00
12793;BME280;6460;42.684;23.260;2022-12-18T07:59:28;95825.38;;;3.76;100.00
12793;BME280;6460;42.684;23.260;2022-12-18T08:01:55;95835.06;;;3.62;100.00
12793;BME280;6460;42.684;23.260;2022-12-18T08:04:22;95836.63;;;3.68;100.00
12793;BME280;6460;42.684;23.260;2022-12-18T08:06:49;95827.28;;;3.70;100.00
12793;BME280;6460;42.684;23.260;2022-12-18T08:09:16;95837.22;;;3.60;100.00
12793;BME280;6460;42.684;23.260;2022-12-18T08:11:44;95838.34;;;3.54;100.00
12793;BME280;6460;42.684;23.260;2022-12-18T08:14:11;95844.50;;;3.49;100.00
12793;BME280;6460;42.684;23.260;2022-12-18T08:16:39;95837.13;;;3.41;100.00
12793;BME280;6460;42.684;23.260;2022-12-18T08:19:05;95841.50;;;3.56;100.00
12793;BME280;6460;42.684;23.260;2022-12-18T08:21:32;95844.69;;;3.58;100.00
12793;BME280;6460;42.684;23.260;2022-12-18T08:24:05;95862.84;;;3.51;100.00
12793;BME280;6460;42.684;23.260;2022-12-18T08:26:32;95867.47;;;3.64;100.00
12793;BME280;6460;42.684;23.260;2022-12-18T08:29:02;95853.75;;;3.52;100.00
12793;BME280;6460;42.684;23.260;2022-12-18T08:31:30;95873.78;;;3.44;100.00
12793;BME280;6460;42.684;23.260;2022-12-18T08:33:58;95860.19;;;3.51;100.00
12793;BME280;6460;42.684;23.260;2022-12-18T08:36:26;95881.63;;;3.59;100.00
12793;BME280;6460;42.684;23.260;2022-12-18T08:38:53;95881.44;;;3.51;100.00
12793;BME280;6460;42.684;23.260;2022-12-18T08:41:21;95874.38;;;3.65;100.00
12793;BME280;6460;42.684;23.260;2022-12-18T08:43:48;95878.78;;;3.51;100.00
12793;BME280;6460;42.684;23.260;2022-12-18T08:46:36;95870.38;;;3.67;100.00
12793;BME280;6460;42.684;23.260;2022-12-18T08:49:06;95882.41;;;3.60;100.00
12793;BME280;6460;42.684;23.260;2022-12-18T08:51:34;95881.94;;;3.53;100.00
12793;BME280;6460;42.684;23.260;2022-12-18T08:54:02;95878.34;;;3.67;100.00
12793;BME280;6460;42.684;23.260;2022-12-18T08:56:30;95869.16;;;3.55;100.00
12793;BME280;6460;42.684;23.260;2022-12-18T08:58:58;95884.63;;;3.48;100.00
12793;BME280;6460;42.684;23.260;2022-12-18T09:01:26;95877.47;;;3.77;100.00
12793;BME280;6460;42.684;23.260;2022-12-18T09:03:55;95875.69;;;3.67;100.00
12793;BME280;6460;42.684;23.260;2022-12-18T09:06:23;95875.75;;;3.91;100.00
12793;BME280;6460;42.684;23.260;2022-12-18T09:08:51;95878.66;;;3.61;100.00
12793;BME280;6460;42.684;23.260;2022-12-18T09:11:21;95875.75;;;3.91;100.00
12793;BME280;6460;42.684;23.260;2022-12-18T09:13:49;95875.66;;;3.72;100.00
12793;BME280;6460;42.684;23.260;2022-12-18T09:16:16;95868.00;;;3.95;100.00
12793;BME280;6460;42.684;23.260;2022-12-18T09:18:45;95870.59;;;4.00;100.00
12793;BME280;6460;42.684;23.260;2022-12-18T09:21:15;95870.91;;;3.98;100.00
12793;BME280;6460;42.684;23.260;2022-12-18T09:23:43;95869.53;;;3.72;100.00
12793;BME280;6460;42.684;23.260;2022-12-18T09:26:10;95870.75;;;3.85;100.00
12793;BME280;6460;42.684;23.260;2022-12-18T09:28:37;95875.34;;;3.79;100.00
12793;BME280;6460;42.684;23.260;2022-12-18T09:31:06;95873.66;;;4.12;100.00
12793;BME280;6460;42.684;23.260;2022-12-18T09:33:34;95875.03;;;4.09;100.00
12793;BME280;6460;42.684;23.260;2022-12-18T09:36:03;95885.72;;;4.04;100.00
12793;BME280;6460;42.684;23.260;2022-12-18T09:38:33;95869.78;;;3.99;100.00
12793;BME280;6460;42.684;23.260;2022-12-18T09:41:05;95884.59;;;4.10;100.00
12793;BME280;6460;42.684;23.260;2022-12-18T09:43:43;95880.13;;;4.30;100.00
12793;BME280;6460;42.684;23.260;2022-12-18T09:46:17;95875.94;;;4.23;100.00
12793;BME280;6460;42.684;23.260;2022-12-18T09:48:49;95873.16;;;4.34;100.00
12793;BME280;6460;42.684;23.260;2022-12-18T09:51:21;95873.56;;;4.46;100.00
12793;BME280;6460;42.684;23.260;2022-12-18T09:53:55;95875.25;;;4.37;100.00
12793;BME280;6460;42.684;23.260;2022-12-18T09:56:26;95866.44;;;4.17;100.00
12793;BME280;6460;42.684;23.260;2022-12-18T09:58:58;95878.06;;;4.21;100.00
12793;BME280;6460;42.684;23.260;2022-12-18T10:01:27;95867.00;;;4.14;100.00
12793;BME280;6460;42.684;23.260;2022-12-18T10:03:55;95865.00;;;4.25;100.00
12793;BME280;6460;42.684;23.260;2022-12-18T10:06:26;95867.75;;;3.91;100.00
12793;BME280;6460;42.684;23.260;2022-12-18T10:09:02;95866.81;;;4.30;100.00
12793;BME280;6460;42.684;23.260;2022-12-18T10:11:40;95867.88;;;4.28;100.00
12793;BME280;6460;42.684;23.260;2022-12-18T10:14:16;95865.06;;;4.20;100.00
12793;BME280;6460;42.684;23.260;2022-12-18T10:16:54;95864.16;;;4.30;100.00
12793;BME280;6460;42.684;23.260;2022-12-18T10:19:35;95872.41;;;4.28;100.00
12793;BME280;6460;42.684;23.260;2022-12-18T10:22:15;95879.16;;;4.20;100.00
12793;BME280;6460;42.684;23.260;2022-12-18T10:24:52;95888.59;;;4.32;100.00
12793;BME280;6460;42.684;23.260;2022-12-18T10:27:23;95878.22;;;4.11;100.00
12793;BME280;6460;42.684;23.260;2022-12-18T10:29:51;95899.25;;;4.08;100.00
12793;BME280;6460;42.684;23.260;2022-12-18T10:32:21;95902.31;;;4.20;100.00
12793;BME280;6460;42.684;23.260;2022-12-18T10:34:50;95881.00;;;3.96;100.00
12793;BME280;6460;42.684;23.260;2022-12-18T10:37:19;95867.75;;;4.15;100.00
12793;BME280;6460;42.684;23.260;2022-12-18T10:40:06;95889.78;;;3.97;100.00
12793;BME280;6460;42.684;23.260;2022-12-18T10:42:33;95887.72;;;4.17;100.00
12793;BME280;6460;42.684;23.260;2022-12-18T10:45:03;95882.53;;;4.02;100.00
12793;BME280;6460;42.684;23.260;2022-12-18T10:47:31;95875.94;;;4.23;100.00
12793;BME280;6460;42.684;23.260;2022-12-18T10:50:01;95873.22;;;4.28;100.00
12793;BME280;6460;42.684;23.260;2022-12-18T10:52:28;95879.56;;;4.33;100.00
12793;BME280;6460;42.684;23.260;2022-12-18T10:55:06;95872.31;;;4.14;100.00
12793;BME280;6460;42.684;23.260;2022-12-18T10:57:42;95869.69;;;4.09;100.00
12793;BME280;6460;42.684;23.260;2022-12-18T11:00:28;95884.38;;;4.31;100.00
12793;BME280;6460;42.684;23.260;2022-12-18T11:03:36;95874.34;;;4.22;100.00
12793;BME280;6460;42.684;23.260;2022-12-18T11:06:07;95886.59;;;4.23;100.00
12793;BME280;6460;42.684;23.260;2022-12-18T11:08:41;95882.09;;;4.19;100.00
12793;BME280;6460;42.684;23.260;2022-12-18T11:14:43;95883.63;;;4.25;100.00
12793;BME280;6460;42.684;23.260;2022-12-18T11:17:19;95879.63;;;4.28;100.00
12793;BME280;6460;42.684;23.260;2022-12-18T11:20:02;95888.16;;;4.48;100.00
12793;BME280;6460;42.684;23.260;2022-12-18T11:22:54;95898.81;;;4.48;100.00
12793;BME280;6460;42.684;23.260;2022-12-18T11:25:23;95890.50;;;4.02;100.00
12793;BME280;6460;42.684;23.260;2022-12-18T11:27:52;95891.41;;;3.93;100.00
12793;BME280;6460;42.684;23.260;2022-12-18T11:30:27;95892.75;;;3.90;100.00
12793;BME280;6460;42.684;23.260;2022-12-18T11:33:04;95881.94;;;4.10;100.00
12793;BME280;6460;42.684;23.260;2022-12-18T11:35:42;95881.88;;;4.15;100.00
12793;BME280;6460;42.684;23.260;2022-12-18T11:38:20;95885.34;;;4.40;100.00
12793;BME280;6460;42.684;23.260;2022-12-18T11:40:56;95886.00;;;4.26;100.00
12793;BME280;6460;42.684;23.260;2022-12-18T11:43:31;95888.38;;;4.28;100.00
12793;BME280;6460;42.684;23.260;2022-12-18T11:46:06;95897.22;;;4.23;100.00
12793;BME280;6460;42.684;23.260;2022-12-18T11:48:41;95891.44;;;4.16;100.00
12793;BME280;6460;42.684;23.260;2022-12-18T11:51:13;95900.22;;;4.41;100.00
12793;BME280;6460;42.684;23.260;2022-12-18T11:54:11;95887.63;;;4.28;100.00
12793;BME280;6460;42.684;23.260;2022-12-18T11:56:47;95885.69;;;4.33;100.00
12793;BME280;6460;42.684;23.260;2022-12-18T11:59:26;95881.19;;;4.28;100.00
12793;BME280;6460;42.684;23.260;2022-12-18T12:02:09;95876.16;;;4.27;100.00
12793;BME280;6460;42.684;23.260;2022-12-18T12:07:46;95882.50;;;4.55;100.00
12793;BME280;6460;42.684;23.260;2022-12-18T12:10:31;95883.66;;;4.44;100.00
12793;BME280;6460;42.684;23.260;2022-12-18T12:13:12;95875.84;;;4.34;100.00
12793;BME280;6460;42.684;23.260;2022-12-18T12:15:48;95869.03;;;4.46;100.00
12793;BME280;6460;42.684;23.260;2022-12-18T12:18:28;95873.72;;;4.73;100.00
12793;BME280;6460;42.684;23.260;2022-12-18T12:21:04;95871.19;;;4.63;100.00
12793;BME280;6460;42.684;23.260;2022-12-18T12:23:40;95877.59;;;4.43;100.00
12793;BME280;6460;42.684;23.260;2022-12-18T12:26:16;95878.88;;;4.46;100.00
12793;BME280;6460;42.684;23.260;2022-12-18T12:29:15;95881.53;;;4.22;100.00
12793;BME280;6460;42.684;23.260;2022-12-18T12:31:56;95880.00;;;4.40;100.00
12793;BME280;6460;42.684;23.260;2022-12-18T12:34:35;95881.16;;;4.34;100.00
12793;BME280;6460;42.684;23.260;2022-12-18T12:37:17;95877.72;;;4.28;100.00
12793;BME280;6460;42.684;23.260;2022-12-18T12:39:47;95880.69;;;4.26;100.00
12793;BME280;6460;42.684;23.260;2022-12-18T12:42:20;95876.44;;;4.49;100.00
12793;BME280;6460;42.684;23.260;2022-12-18T12:45:15;95877.34;;;4.40;100.00
12793;BME280;6460;42.684;23.260;2022-12-18T12:47:45;95875.91;;;4.71;100.00
12793;BME280;6460;42.684;23.260;2022-12-18T12:50:17;95878.56;;;4.90;100.00
12793;BME280;6460;42.684;23.260;2022-12-18T12:52:47;95888.56;;;4.79;100.00
12793;BME280;6460;42.684;23.260;2022-12-18T12:55:19;95891.50;;;4.59;100.00
12793;BME280;6460;42.684;23.260;2022-12-18T12:57:51;95896.63;;;4.74;100.00
12793;BME280;6460;42.684;23.260;2022-12-18T13:00:21;95893.59;;;4.62;100.00
12793;BME280;6460;42.684;23.260;2022-12-18T13:02:53;95890.34;;;4.65;100.00
12793;BME280;6460;42.684;23.260;2022-12-18T13:05:33;95887.13;;;4.68;100.00
12793;BME280;6460;42.684;23.260;2022-12-18T13:08:04;95898.91;;;4.62;100.00
12793;BME280;6460;42.684;23.260;2022-12-18T13:10:34;95907.06;;;4.47;100.00
12793;BME280;6460;42.684;23.260;2022-12-18T13:13:05;95906.53;;;4.50;100.00
12793;BME280;6460;42.684;23.260;2022-12-18T13:15:38;95913.59;;;4.59;100.00
12793;BME280;6460;42.684;23.260;2022-12-18T13:18:18;95910.88;;;4.83;100.00
12793;BME280;6460;42.684;23.260;2022-12-18T13:21:09;95926.91;;;4.59;100.00
12793;BME280;6460;42.684;23.260;2022-12-18T13:23:49;95912.91;;;4.49;100.00